Main page
METAR-TAF:

METAR-TAF

Airports :

MoD Boscombe Down

Boscombe Down, England

latitude: 51-10N, longitude: 001-45W, elevation: 124 m

Current weather observation

The report was made 59 minutes ago, at 06:50 UTC
Wind 3 kt from the Southwest
Temperature 14°C
Humidity 94%
Pressure 1003 hPa
Visibility 10 km or more

METAR: EGDM 180650Z AUTO 22003KT 9999 FEW042/// BKN050/// 14/13 Q1003

Time: 08:49 (07:49 UTC)


TAF: missing

Weather observations and forecasts of more than 4000 airports (METAR and TAF reports).

The available stations are represented by yellow and red dots on the map.

Hover mouse over dot to see the name of the station.

Then click to see weather observations and forecasts.

To change the map : click on the green buttons with a black cross to zoom in, on the green button with a dash to zoom out, or on the green arrows for adjacent maps.


METAR-TAF: